sensor_id;sensor_type;location;lat;lon;timestamp;temperature;humidity
66670;DHT22;53568;52.164;4.472;2022-11-25T00:01:26;11.34;82.02
66670;DHT22;53568;52.164;4.472;2022-11-25T00:03:54;11.30;82.44
66670;DHT22;53568;52.164;4.472;2022-11-25T00:06:22;11.34;82.39
66670;DHT22;53568;52.164;4.472;2022-11-25T00:08:53;11.26;82.56
66670;DHT22;53568;52.164;4.472;2022-11-25T00:11:19;11.19;83.01
66670;DHT22;53568;52.164;4.472;2022-11-25T00:13:46;11.28;82.82
66670;DHT22;53568;52.164;4.472;2022-11-25T00:16:15;11.41;82.54
66670;DHT22;53568;52.164;4.472;2022-11-25T00:18:45;11.43;82.37
66670;DHT22;53568;52.164;4.472;2022-11-25T00:21:13;11.38;82.61
66670;DHT22;53568;52.164;4.472;2022-11-25T00:23:39;11.34;82.97
66670;DHT22;53568;52.164;4.472;2022-11-25T00:26:13;11.47;82.78
66670;DHT22;53568;52.164;4.472;2022-11-25T00:28:41;11.37;82.91
66670;DHT22;53568;52.164;4.472;2022-11-25T00:31:12;11.31;83.11
66670;DHT22;53568;52.164;4.472;2022-11-25T00:33:39;11.41;83.05
66670;DHT22;53568;52.164;4.472;2022-11-25T00:36:06;11.40;83.07
66670;DHT22;53568;52.164;4.472;2022-11-25T00:38:37;11.53;82.92
66670;DHT22;53568;52.164;4.472;2022-11-25T00:41:02;11.57;82.65
66670;DHT22;53568;52.164;4.472;2022-11-25T00:43:46;11.57;82.64
66670;DHT22;53568;52.164;4.472;2022-11-25T00:46:30;11.57;82.78
66670;DHT22;53568;52.164;4.472;2022-11-25T00:48:56;11.61;82.96
66670;DHT22;53568;52.164;4.472;2022-11-25T00:51:21;11.71;82.86
66670;DHT22;53568;52.164;4.472;2022-11-25T00:53:46;11.81;82.24
66670;DHT22;53568;52.164;4.472;2022-11-25T00:56:12;11.66;82.39
66670;DHT22;53568;52.164;4.472;2022-11-25T00:58:41;11.61;82.44
66670;DHT22;53568;52.164;4.472;2022-11-25T01:01:07;11.56;82.79
66670;DHT22;53568;52.164;4.472;2022-11-25T01:03:36;11.53;82.99
66670;DHT22;53568;52.164;4.472;2022-11-25T01:06:04;11.53;83.05
66670;DHT22;53568;52.164;4.472;2022-11-25T01:08:31;11.63;82.76
66670;DHT22;53568;52.164;4.472;2022-11-25T01:11:03;11.64;82.92
66670;DHT22;53568;52.164;4.472;2022-11-25T01:13:32;11.63;82.83
66670;DHT22;53568;52.164;4.472;2022-11-25T01:16:02;11.58;82.88
66670;DHT22;53568;52.164;4.472;2022-11-25T01:18:29;11.63;83.19
66670;DHT22;53568;52.164;4.472;2022-11-25T01:20:55;11.61;83.22
66670;DHT22;53568;52.164;4.472;2022-11-25T01:23:29;11.51;83.48
66670;DHT22;53568;52.164;4.472;2022-11-25T01:25:54;11.58;83.12
66670;DHT22;53568;52.164;4.472;2022-11-25T01:28:19;11.63;82.97
66670;DHT22;53568;52.164;4.472;2022-11-25T01:30:45;11.63;82.99
66670;DHT22;53568;52.164;4.472;2022-11-25T01:33:10;11.67;83.11
66670;DHT22;53568;52.164;4.472;2022-11-25T01:35:36;11.58;83.07
66670;DHT22;53568;52.164;4.472;2022-11-25T01:38:03;11.60;83.14
66670;DHT22;53568;52.164;4.472;2022-11-25T01:40:28;11.63;83.18
66670;DHT22;53568;52.164;4.472;2022-11-25T01:42:54;11.70;82.93
66670;DHT22;53568;52.164;4.472;2022-11-25T01:47:56;11.70;82.91
66670;DHT22;53568;52.164;4.472;2022-11-25T01:50:25;11.77;82.66
66670;DHT22;53568;52.164;4.472;2022-11-25T01:52:54;11.71;82.74
66670;DHT22;53568;52.164;4.472;2022-11-25T01:55:25;11.78;82.63
66670;DHT22;53568;52.164;4.472;2022-11-25T01:57:55;11.78;82.63
66670;DHT22;53568;52.164;4.472;2022-11-25T02:00:22;11.80;82.64
66670;DHT22;53568;52.164;4.472;2022-11-25T02:02:51;11.78;82.46
66670;DHT22;53568;52.164;4.472;2022-11-25T02:05:35;11.88;82.33
66670;DHT22;53568;52.164;4.472;2022-11-25T02:08:04;11.94;82.06
66670;DHT22;53568;52.164;4.472;2022-11-25T02:10:31;11.92;81.85
66670;DHT22;53568;52.164;4.472;2022-11-25T02:12:58;11.91;81.98
66670;DHT22;53568;52.164;4.472;2022-11-25T02:15:24;11.91;81.88
66670;DHT22;53568;52.164;4.472;2022-11-25T02:17:50;11.87;81.82
66670;DHT22;53568;52.164;4.472;2022-11-25T02:20:20;11.78;82.05
66670;DHT22;53568;52.164;4.472;2022-11-25T02:22:55;11.81;82.15
66670;DHT22;53568;52.164;4.472;2022-11-25T02:25:23;11.78;82.24
66670;DHT22;53568;52.164;4.472;2022-11-25T02:28:25;11.71;82.26
66670;DHT22;53568;52.164;4.472;2022-11-25T02:30:52;11.75;82.29
66670;DHT22;53568;52.164;4.472;2022-11-25T02:33:19;11.84;82.10
66670;DHT22;53568;52.164;4.472;2022-11-25T02:36:12;11.91;81.87
66670;DHT22;53568;52.164;4.472;2022-11-25T02:38:46;11.90;81.59
66670;DHT22;53568;52.164;4.472;2022-11-25T02:43:50;11.84;81.59
66670;DHT22;53568;52.164;4.472;2022-11-25T02:46:19;11.81;81.71
66670;DHT22;53568;52.164;4.472;2022-11-25T02:48:46;11.87;81.48
66670;DHT22;53568;52.164;4.472;2022-11-25T02:51:14;11.92;80.92
66670;DHT22;53568;52.164;4.472;2022-11-25T02:53:41;11.80;81.12
66670;DHT22;53568;52.164;4.472;2022-11-25T02:56:08;11.68;81.38
66670;DHT22;53568;52.164;4.472;2022-11-25T02:58:34;11.80;81.15
66670;DHT22;53568;52.164;4.472;2022-11-25T03:01:00;11.70;81.31
66670;DHT22;53568;52.164;4.472;2022-11-25T03:03:25;11.67;81.49
66670;DHT22;53568;52.164;4.472;2022-11-25T03:05:51;11.74;81.34
66670;DHT22;53568;52.164;4.472;2022-11-25T03:08:16;11.73;81.45
66670;DHT22;53568;52.164;4.472;2022-11-25T03:10:45;11.70;81.32
66670;DHT22;53568;52.164;4.472;2022-11-25T03:13:10;11.63;81.20
66670;DHT22;53568;52.164;4.472;2022-11-25T03:15:36;11.66;81.21
66670;DHT22;53568;52.164;4.472;2022-11-25T03:18:03;11.54;81.12
66670;DHT22;53568;52.164;4.472;2022-11-25T03:20:32;11.44;81.37
66670;DHT22;53568;52.164;4.472;2022-11-25T03:22:57;11.57;81.10
66670;DHT22;53568;52.164;4.472;2022-11-25T03:25:23;11.63;80.88
66670;DHT22;53568;52.164;4.472;2022-11-25T03:27:48;11.53;81.11
66670;DHT22;53568;52.164;4.472;2022-11-25T03:30:20;11.60;81.17
66670;DHT22;53568;52.164;4.472;2022-11-25T03:32:46;11.60;80.99
66670;DHT22;53568;52.164;4.472;2022-11-25T03:35:13;11.64;81.01
66670;DHT22;53568;52.164;4.472;2022-11-25T03:37:39;11.66;80.55
66670;DHT22;53568;52.164;4.472;2022-11-25T03:40:05;11.71;80.56
66670;DHT22;53568;52.164;4.472;2022-11-25T03:42:32;11.70;80.18
66670;DHT22;53568;52.164;4.472;2022-11-25T03:44:57;11.73;80.15
66670;DHT22;53568;52.164;4.472;2022-11-25T03:47:24;11.75;79.96
66670;DHT22;53568;52.164;4.472;2022-11-25T03:49:49;11.68;79.89
66670;DHT22;53568;52.164;4.472;2022-11-25T03:52:15;11.57;79.88
66670;DHT22;53568;52.164;4.472;2022-11-25T03:54:40;11.47;80.25
66670;DHT22;53568;52.164;4.472;2022-11-25T03:57:06;11.46;80.19
66670;DHT22;53568;52.164;4.472;2022-11-25T03:59:31;11.33;80.48
66670;DHT22;53568;52.164;4.472;2022-11-25T04:01:57;11.37;80.37
66670;DHT22;53568;52.164;4.472;2022-11-25T04:04:23;11.43;80.13
66670;DHT22;53568;52.164;4.472;2022-11-25T04:06:48;11.31;80.25
66670;DHT22;53568;52.164;4.472;2022-11-25T04:09:14;11.27;79.85
66670;DHT22;53568;52.164;4.472;2022-11-25T04:11:49;11.17;80.26
66670;DHT22;53568;52.164;4.472;2022-11-25T04:14:42;11.20;80.14
66670;DHT22;53568;52.164;4.472;2022-11-25T04:17:08;11.09;80.41
66670;DHT22;53568;52.164;4.472;2022-11-25T04:19:33;11.09;80.38
66670;DHT22;53568;52.164;4.472;2022-11-25T04:21:59;11.10;80.41
66670;DHT22;53568;52.164;4.472;2022-11-25T04:24:26;11.07;80.53
66670;DHT22;53568;52.164;4.472;2022-11-25T04:26:54;11.09;80.58
66670;DHT22;53568;52.164;4.472;2022-11-25T04:29:20;11.07;80.49
66670;DHT22;53568;52.164;4.472;2022-11-25T04:31:45;11.14;80.26
66670;DHT22;53568;52.164;4.472;2022-11-25T04:34:11;11.03;80.38
66670;DHT22;53568;52.164;4.472;2022-11-25T04:36:36;11.12;80.10
66670;DHT22;53568;52.164;4.472;2022-11-25T04:39:03;11.03;80.22
66670;DHT22;53568;52.164;4.472;2022-11-25T04:41:29;10.90;80.58
66670;DHT22;53568;52.164;4.472;2022-11-25T04:43:54;10.88;80.85
66670;DHT22;53568;52.164;4.472;2022-11-25T04:46:22;10.95;80.39
66670;DHT22;53568;52.164;4.472;2022-11-25T04:48:49;10.68;81.13
66670;DHT22;53568;52.164;4.472;2022-11-25T04:51:15;10.82;80.95
66670;DHT22;53568;52.164;4.472;2022-11-25T04:53:41;10.82;80.83
66670;DHT22;53568;52.164;4.472;2022-11-25T04:56:16;10.76;81.08
66670;DHT22;53568;52.164;4.472;2022-11-25T04:58:42;10.68;81.33
66670;DHT22;53568;52.164;4.472;2022-11-25T05:01:46;10.73;81.18
66670;DHT22;53568;52.164;4.472;2022-11-25T05:04:11;10.86;81.08
66670;DHT22;53568;52.164;4.472;2022-11-25T05:06:37;10.84;80.79
66670;DHT22;53568;52.164;4.472;2022-11-25T05:09:02;10.82;80.76
66670;DHT22;53568;52.164;4.472;2022-11-25T05:11:28;10.77;80.88
66670;DHT22;53568;52.164;4.472;2022-11-25T05:13:54;10.77;80.76
66670;DHT22;53568;52.164;4.472;2022-11-25T05:16:19;10.82;80.83
66670;DHT22;53568;52.164;4.472;2022-11-25T05:18:47;10.77;80.75
66670;DHT22;53568;52.164;4.472;2022-11-25T05:21:13;10.80;80.43
66670;DHT22;53568;52.164;4.472;2022-11-25T05:23:38;10.86;80.31
66670;DHT22;53568;52.164;4.472;2022-11-25T05:26:04;10.82;80.46
66670;DHT22;53568;52.164;4.472;2022-11-25T05:28:30;10.70;80.65
66670;DHT22;53568;52.164;4.472;2022-11-25T05:30:56;10.70;80.68
66670;DHT22;53568;52.164;4.472;2022-11-25T05:33:22;10.79;80.41
66670;DHT22;53568;52.164;4.472;2022-11-25T05:36:01;10.77;80.25
66670;DHT22;53568;52.164;4.472;2022-11-25T05:38:27;10.73;80.21
66670;DHT22;53568;52.164;4.472;2022-11-25T05:41:00;10.79;79.98
66670;DHT22;53568;52.164;4.472;2022-11-25T05:43:28;10.73;80.15
66670;DHT22;53568;52.164;4.472;2022-11-25T05:45:54;10.75;80.31
66670;DHT22;53568;52.164;4.472;2022-11-25T05:48:20;10.76;80.26
66670;DHT22;53568;52.164;4.472;2022-11-25T05:50:45;10.82;79.87
66670;DHT22;53568;52.164;4.472;2022-11-25T05:53:11;10.84;79.80
66670;DHT22;53568;52.164;4.472;2022-11-25T05:55:36;10.77;79.85
66670;DHT22;53568;52.164;4.472;2022-11-25T05:58:02;10.80;79.89
66670;DHT22;53568;52.164;4.472;2022-11-25T06:00:30;10.73;79.88
66670;DHT22;53568;52.164;4.472;2022-11-25T06:02:56;10.82;79.37
66670;DHT22;53568;52.164;4.472;2022-11-25T06:05:22;10.73;79.62
66670;DHT22;53568;52.164;4.472;2022-11-25T06:07:47;10.69;79.72
66670;DHT22;53568;52.164;4.472;2022-11-25T06:10:13;10.66;79.83
66670;DHT22;53568;52.164;4.472;2022-11-25T06:12:38;10.58;80.03
66670;DHT22;53568;52.164;4.472;2022-11-25T06:15:04;10.60;79.90
66670;DHT22;53568;52.164;4.472;2022-11-25T06:17:30;10.53;80.15
66670;DHT22;53568;52.164;4.472;2022-11-25T06:19:55;10.52;80.05
66670;DHT22;53568;52.164;4.472;2022-11-25T06:22:21;10.53;79.89
66670;DHT22;53568;52.164;4.472;2022-11-25T06:24:47;10.56;79.95
66670;DHT22;53568;52.164;4.472;2022-11-25T06:27:13;10.49;80.15
66670;DHT22;53568;52.164;4.472;2022-11-25T06:29:38;10.46;80.19
66670;DHT22;53568;52.164;4.472;2022-11-25T06:32:04;10.46;79.99
66670;DHT22;53568;52.164;4.472;2022-11-25T06:34:29;10.53;79.83
66670;DHT22;53568;52.164;4.472;2022-11-25T06:36:55;10.50;79.64
66670;DHT22;53568;52.164;4.472;2022-11-25T06:39:20;10.36;79.86
66670;DHT22;53568;52.164;4.472;2022-11-25T06:41:46;10.29;80.08
66670;DHT22;53568;52.164;4.472;2022-11-25T06:44:13;10.45;79.88
66670;DHT22;53568;52.164;4.472;2022-11-25T06:46:38;10.55;79.75
66670;DHT22;53568;52.164;4.472;2022-11-25T06:49:04;10.55;79.38
66670;DHT22;53568;52.164;4.472;2022-11-25T06:51:29;10.49;79.46
66670;DHT22;53568;52.164;4.472;2022-11-25T06:53:55;10.60;78.85
66670;DHT22;53568;52.164;4.472;2022-11-25T06:56:26;10.52;78.84
66670;DHT22;53568;52.164;4.472;2022-11-25T06:58:53;10.38;79.26
66670;DHT22;53568;52.164;4.472;2022-11-25T07:01:23;10.41;79.35
66670;DHT22;53568;52.164;4.472;2022-11-25T07:03:54;10.38;79.32
66670;DHT22;53568;52.164;4.472;2022-11-25T07:06:20;10.46;79.15
66670;DHT22;53568;52.164;4.472;2022-11-25T07:08:47;10.53;78.67
66670;DHT22;53568;52.164;4.472;2022-11-25T07:11:27;10.56;78.35
66670;DHT22;53568;52.164;4.472;2022-11-25T07:13:56;10.44;78.63
66670;DHT22;53568;52.164;4.472;2022-11-25T07:16:21;10.41;78.75
66670;DHT22;53568;52.164;4.472;2022-11-25T07:18:47;10.41;78.70
66670;DHT22;53568;52.164;4.472;2022-11-25T07:21:17;10.42;78.68
66670;DHT22;53568;52.164;4.472;2022-11-25T07:23:44;10.41;78.88
66670;DHT22;53568;52.164;4.472;2022-11-25T07:26:13;10.50;77.98
66670;DHT22;53568;52.164;4.472;2022-11-25T07:28:42;10.46;78.25
66670;DHT22;53568;52.164;4.472;2022-11-25T07:31:17;10.44;78.33
66670;DHT22;53568;52.164;4.472;2022-11-25T07:33:43;10.39;78.47
66670;DHT22;53568;52.164;4.472;2022-11-25T07:36:11;10.38;78.18
66670;DHT22;53568;52.164;4.472;2022-11-25T07:38:38;10.31;78.57
66670;DHT22;53568;52.164;4.472;2022-11-25T07:41:10;10.41;78.33
66670;DHT22;53568;52.164;4.472;2022-11-25T07:43:36;10.48;77.81
66670;DHT22;53568;52.164;4.472;2022-11-25T07:48:48;10.36;77.91
66670;DHT22;53568;52.164;4.472;2022-11-25T07:53:45;10.32;78.35
66670;DHT22;53568;52.164;4.472;2022-11-25T07:56:12;10.39;78.14
66670;DHT22;53568;52.164;4.472;2022-11-25T07:58:39;10.42;77.76
66670;DHT22;53568;52.164;4.472;2022-11-25T08:01:06;10.48;77.64
66670;DHT22;53568;52.164;4.472;2022-11-25T08:03:37;10.52;77.65
66670;DHT22;53568;52.164;4.472;2022-11-25T08:06:06;10.60;77.00
66670;DHT22;53568;52.164;4.472;2022-11-25T08:08:33;10.60;76.86
66670;DHT22;53568;52.164;4.472;2022-11-25T08:11:07;10.62;76.96
66670;DHT22;53568;52.164;4.472;2022-11-25T08:13:35;10.70;76.80
66670;DHT22;53568;52.164;4.472;2022-11-25T08:16:01;10.75;76.51
66670;DHT22;53568;52.164;4.472;2022-11-25T08:18:27;10.75;76.66
66670;DHT22;53568;52.164;4.472;2022-11-25T08:21:01;10.75;76.70
66670;DHT22;53568;52.164;4.472;2022-11-25T08:23:32;10.83;76.47
66670;DHT22;53568;52.164;4.472;2022-11-25T08:26:06;10.84;76.56
66670;DHT22;53568;52.164;4.472;2022-11-25T08:28:32;10.95;76.77
66670;DHT22;53568;52.164;4.472;2022-11-25T08:31:18;11.07;76.49
66670;DHT22;53568;52.164;4.472;2022-11-25T08:33:45;11.14;76.34
66670;DHT22;53568;52.164;4.472;2022-11-25T08:36:11;11.27;76.11
66670;DHT22;53568;52.164;4.472;2022-11-25T08:38:37;11.33;76.13
66670;DHT22;53568;52.164;4.472;2022-11-25T08:41:09;11.34;75.96
66670;DHT22;53568;52.164;4.472;2022-11-25T08:43:34;11.30;75.92
66670;DHT22;53568;52.164;4.472;2022-11-25T08:46:00;11.36;76.07
66670;DHT22;53568;52.164;4.472;2022-11-25T08:48:25;11.37;76.00
66670;DHT22;53568;52.164;4.472;2022-11-25T08:50:56;11.46;75.92
66670;DHT22;53568;52.164;4.472;2022-11-25T08:53:21;11.54;75.55
66670;DHT22;53568;52.164;4.472;2022-11-25T08:55:47;11.57;75.55
66670;DHT22;53568;52.164;4.472;2022-11-25T08:58:13;11.57;75.83
66670;DHT22;53568;52.164;4.472;2022-11-25T09:00:41;11.68;75.87
66670;DHT22;53568;52.164;4.472;2022-11-25T09:03:07;11.70;75.86
66670;DHT22;53568;52.164;4.472;2022-11-25T09:05:33;11.70;76.13
66670;DHT22;53568;52.164;4.472;2022-11-25T09:08:03;11.78;75.81
66670;DHT22;53568;52.164;4.472;2022-11-25T09:10:31;11.81;76.16
66670;DHT22;53568;52.164;4.472;2022-11-25T09:12:57;11.98;75.92
66670;DHT22;53568;52.164;4.472;2022-11-25T09:15:22;11.98;76.01
66670;DHT22;53568;52.164;4.472;2022-11-25T09:17:48;11.97;76.39
66670;DHT22;53568;52.164;4.472;2022-11-25T09:20:13;12.10;76.21
66670;DHT22;53568;52.164;4.472;2022-11-25T09:22:39;12.21;76.21
66670;DHT22;53568;52.164;4.472;2022-11-25T09:25:05;12.35;75.82
66670;DHT22;53568;52.164;4.472;2022-11-25T09:27:31;12.41;75.85
66670;DHT22;53568;52.164;4.472;2022-11-25T09:29:56;12.42;76.09
66670;DHT22;53568;52.164;4.472;2022-11-25T09:32:22;12.41;76.15
66670;DHT22;53568;52.164;4.472;2022-11-25T09:34:47;12.53;75.99
66670;DHT22;53568;52.164;4.472;2022-11-25T09:37:13;12.50;75.90
66670;DHT22;53568;52.164;4.472;2022-11-25T09:39:39;12.49;75.93
66670;DHT22;53568;52.164;4.472;2022-11-25T09:48:13;12.48;76.20
66670;DHT22;53568;52.164;4.472;2022-11-25T09:54:13;12.39;76.16
66670;DHT22;53568;52.164;4.472;2022-11-25T09:56:42;12.39;76.24
66670;DHT22;53568;52.164;4.472;2022-11-25T09:59:19;12.41;76.29
66670;DHT22;53568;52.164;4.472;2022-11-25T10:02:01;12.38;76.67
66670;DHT22;53568;52.164;4.472;2022-11-25T10:04:37;12.31;77.20
66670;DHT22;53568;52.164;4.472;2022-11-25T10:07:15;12.38;77.30
66670;DHT22;53568;52.164;4.472;2022-11-25T10:09:42;12.46;77.20
66670;DHT22;53568;52.164;4.472;2022-11-25T10:12:28;12.50;77.42
66670;DHT22;53568;52.164;4.472;2022-11-25T10:15:26;12.56;77.72
66670;DHT22;53568;52.164;4.472;2022-11-25T10:17:57;12.69;77.77
66670;DHT22;53568;52.164;4.472;2022-11-25T10:20:29;12.80;77.39
66670;DHT22;53568;52.164;4.472;2022-11-25T10:23:30;12.83;76.93
66670;DHT22;53568;52.164;4.472;2022-11-25T10:26:02;12.77;76.57
66670;DHT22;53568;52.164;4.472;2022-11-25T10:28:34;12.83;76.11
66670;DHT22;53568;52.164;4.472;2022-11-25T10:31:18;12.69;75.54
66670;DHT22;53568;52.164;4.472;2022-11-25T10:33:47;12.86;75.32
66670;DHT22;53568;52.164;4.472;2022-11-25T10:36:32;12.92;75.28
66670;DHT22;53568;52.164;4.472;2022-11-25T10:39:22;12.99;75.42
66670;DHT22;53568;52.164;4.472;2022-11-25T10:41:56;13.06;75.37
66670;DHT22;53568;52.164;4.472;2022-11-25T10:44:29;13.09;75.31
66670;DHT22;53568;52.164;4.472;2022-11-25T10:49:58;13.26;75.50
66670;DHT22;53568;52.164;4.472;2022-11-25T10:52:28;13.31;76.23
66670;DHT22;53568;52.164;4.472;2022-11-25T10:55:13;13.16;76.65
66670;DHT22;53568;52.164;4.472;2022-11-25T10:57:40;13.13;77.10
66670;DHT22;53568;52.164;4.472;2022-11-25T11:00:32;13.14;77.65
66670;DHT22;53568;52.164;4.472;2022-11-25T11:03:23;13.14;78.39
66670;DHT22;53568;52.164;4.472;2022-11-25T11:05:51;13.23;78.12
66670;DHT22;53568;52.164;4.472;2022-11-25T11:10:47;13.20;77.83
66670;DHT22;53568;52.164;4.472;2022-11-25T11:13:32;13.10;77.84
66670;DHT22;53568;52.164;4.472;2022-11-25T11:15:58;13.11;77.96
66670;DHT22;53568;52.164;4.472;2022-11-25T11:18:29;13.26;77.85
66670;DHT22;53568;52.164;4.472;2022-11-25T11:21:06;13.27;77.46
66670;DHT22;53568;52.164;4.472;2022-11-25T11:23:54;13.31;77.49
66670;DHT22;53568;52.164;4.472;2022-11-25T11:26:31;13.40;77.46
66670;DHT22;53568;52.164;4.472;2022-11-25T11:29:17;13.44;76.90
66670;DHT22;53568;52.164;4.472;2022-11-25T11:31:58;13.47;76.37
66670;DHT22;53568;52.164;4.472;2022-11-25T11:40:16;13.48;76.12
66670;DHT22;53568;52.164;4.472;2022-11-25T11:42:51;13.47;76.12
66670;DHT22;53568;52.164;4.472;2022-11-25T11:50:38;13.44;75.44
66670;DHT22;53568;52.164;4.472;2022-11-25T11:53:21;13.46;75.41
66670;DHT22;53568;52.164;4.472;2022-11-25T11:58:46;13.47;75.46
66670;DHT22;53568;52.164;4.472;2022-11-25T12:07:06;13.68;74.83
66670;DHT22;53568;52.164;4.472;2022-11-25T12:09:41;13.71;74.80
66670;DHT22;53568;52.164;4.472;2022-11-25T12:12:14;13.64;74.60
66670;DHT22;53568;52.164;4.472;2022-11-25T12:14:50;13.68;74.58
66670;DHT22;53568;52.164;4.472;2022-11-25T12:17:27;13.67;74.53
66670;DHT22;53568;52.164;4.472;2022-11-25T12:20:02;13.78;74.33
66670;DHT22;53568;52.164;4.472;2022-11-25T12:22:43;13.81;74.30
66670;DHT22;53568;52.164;4.472;2022-11-25T12:25:23;13.81;73.58
66670;DHT22;53568;52.164;4.472;2022-11-25T12:30:39;13.70;71.85
66670;DHT22;53568;52.164;4.472;2022-11-25T12:33:23;13.65;71.40
66670;DHT22;53568;52.164;4.472;2022-11-25T12:36:03;13.61;71.39
66670;DHT22;53568;52.164;4.472;2022-11-25T12:38:55;13.54;71.22
66670;DHT22;53568;52.164;4.472;2022-11-25T12:44:26;13.65;71.35
66670;DHT22;53568;52.164;4.472;2022-11-25T12:46:55;13.92;70.79
66670;DHT22;53568;52.164;4.472;2022-11-25T12:49:25;14.09;69.79
66670;DHT22;53568;52.164;4.472;2022-11-25T13:01:05;13.92;70.23
66670;DHT22;53568;52.164;4.472;2022-11-25T13:06:22;13.82;70.47
66670;DHT22;53568;52.164;4.472;2022-11-25T13:11:45;13.87;70.75
66670;DHT22;53568;52.164;4.472;2022-11-25T13:16:59;13.97;70.51
66670;DHT22;53568;52.164;4.472;2022-11-25T13:19:24;13.95;70.30
66670;DHT22;53568;52.164;4.472;2022-11-25T13:21:59;13.91;70.43
66670;DHT22;53568;52.164;4.472;2022-11-25T13:24:40;13.82;70.27
66670;DHT22;53568;52.164;4.472;2022-11-25T13:27:29;13.73;70.94
66670;DHT22;53568;52.164;4.472;2022-11-25T13:29:56;13.70;70.98
66670;DHT22;53568;52.164;4.472;2022-11-25T13:32:34;13.63;71.43
66670;DHT22;53568;52.164;4.472;2022-11-25T13:37:48;13.53;72.17
66670;DHT22;53568;52.164;4.472;2022-11-25T13:40:35;13.53;72.24
66670;DHT22;53568;52.164;4.472;2022-11-25T13:43:01;13.61;71.93
66670;DHT22;53568;52.164;4.472;2022-11-25T13:48:28;13.53;72.03
66670;DHT22;53568;52.164;4.472;2022-11-25T13:51:14;13.53;72.04
66670;DHT22;53568;52.164;4.472;2022-11-25T13:53:51;13.50;72.11
66670;DHT22;53568;52.164;4.472;2022-11-25T13:56:36;13.53;71.96
66670;DHT22;53568;52.164;4.472;2022-11-25T14:01:51;13.43;71.86
66670;DHT22;53568;52.164;4.472;2022-11-25T14:18:35;13.57;72.04
66670;DHT22;53568;52.164;4.472;2022-11-25T14:26:56;13.65;72.03
66670;DHT22;53568;52.164;4.472;2022-11-25T14:31:59;13.65;71.99
66670;DHT22;53568;52.164;4.472;2022-11-25T14:34:32;13.70;71.89
66670;DHT22;53568;52.164;4.472;2022-11-25T14:37:25;13.61;71.63
66670;DHT22;53568;52.164;4.472;2022-11-25T14:40:00;13.63;71.76
66670;DHT22;53568;52.164;4.472;2022-11-25T14:42:34;13.61;71.80
66670;DHT22;53568;52.164;4.472;2022-11-25T14:45:00;13.60;71.80
66670;DHT22;53568;52.164;4.472;2022-11-25T14:47:30;13.54;71.78
66670;DHT22;53568;52.164;4.472;2022-11-25T14:49:57;13.50;71.81
66670;DHT22;53568;52.164;4.472;2022-11-25T14:52:28;13.46;71.98
66670;DHT22;53568;52.164;4.472;2022-11-25T14:54:57;13.47;72.03
66670;DHT22;53568;52.164;4.472;2022-11-25T14:57:27;13.44;72.07
66670;DHT22;53568;52.164;4.472;2022-11-25T14:59:56;13.43;71.99
66670;DHT22;53568;52.164;4.472;2022-11-25T15:02:32;13.39;72.10
66670;DHT22;53568;52.164;4.472;2022-11-25T15:07:42;13.27;72.49
66670;DHT22;53568;52.164;4.472;2022-11-25T15:10:41;13.27;72.59
66670;DHT22;53568;52.164;4.472;2022-11-25T15:13:39;13.27;72.55
66670;DHT22;53568;52.164;4.472;2022-11-25T15:21:14;13.30;72.66
66670;DHT22;53568;52.164;4.472;2022-11-25T15:23:41;13.20;72.69
66670;DHT22;53568;52.164;4.472;2022-11-25T15:26:19;13.24;72.77
66670;DHT22;53568;52.164;4.472;2022-11-25T15:28:46;13.24;72.80
66670;DHT22;53568;52.164;4.472;2022-11-25T15:31:18;13.26;72.87
66670;DHT22;53568;52.164;4.472;2022-11-25T15:33:46;13.27;72.88
66670;DHT22;53568;52.164;4.472;2022-11-25T15:36:14;13.30;72.82
66670;DHT22;53568;52.164;4.472;2022-11-25T15:38:46;13.33;72.85
66670;DHT22;53568;52.164;4.472;2022-11-25T15:43:47;13.33;72.85
66670;DHT22;53568;52.164;4.472;2022-11-25T15:46:14;13.31;72.86
66670;DHT22;53568;52.164;4.472;2022-11-25T15:48:46;13.31;72.86
66670;DHT22;53568;52.164;4.472;2022-11-25T15:51:32;13.31;72.93
66670;DHT22;53568;52.164;4.472;2022-11-25T15:57:31;13.30;72.61
66670;DHT22;53568;52.164;4.472;2022-11-25T16:21:12;12.99;72.86
66670;DHT22;53568;52.164;4.472;2022-11-25T16:23:44;12.97;73.09
66670;DHT22;53568;52.164;4.472;2022-11-25T16:26:12;12.97;73.04
66670;DHT22;53568;52.164;4.472;2022-11-25T16:28:41;12.93;73.12
66670;DHT22;53568;52.164;4.472;2022-11-25T16:31:15;12.95;73.17
66670;DHT22;53568;52.164;4.472;2022-11-25T16:33:41;12.90;73.12
66670;DHT22;53568;52.164;4.472;2022-11-25T16:36:07;12.89;73.23
66670;DHT22;53568;52.164;4.472;2022-11-25T16:38:33;12.85;73.26
66670;DHT22;53568;52.164;4.472;2022-11-25T16:40:59;12.80;73.41
66670;DHT22;53568;52.164;4.472;2022-11-25T16:43:26;12.77;73.39
66670;DHT22;53568;52.164;4.472;2022-11-25T16:45:54;12.77;73.29
66670;DHT22;53568;52.164;4.472;2022-11-25T16:48:21;12.72;73.28
66670;DHT22;53568;52.164;4.472;2022-11-25T16:50:48;12.73;73.26
66670;DHT22;53568;52.164;4.472;2022-11-25T16:53:14;12.67;73.36
66670;DHT22;53568;52.164;4.472;2022-11-25T16:55:42;12.60;73.24
66670;DHT22;53568;52.164;4.472;2022-11-25T16:58:21;12.62;73.30
66670;DHT22;53568;52.164;4.472;2022-11-25T17:00:54;12.55;73.43
66670;DHT22;53568;52.164;4.472;2022-11-25T17:03:23;12.59;73.47
66670;DHT22;53568;52.164;4.472;2022-11-25T17:05:51;12.60;73.39
66670;DHT22;53568;52.164;4.472;2022-11-25T17:08:18;12.62;73.31
66670;DHT22;53568;52.164;4.472;2022-11-25T17:10:44;12.57;73.22
66670;DHT22;53568;52.164;4.472;2022-11-25T17:13:17;12.55;73.07
66670;DHT22;53568;52.164;4.472;2022-11-25T17:15:50;12.59;73.00
66670;DHT22;53568;52.164;4.472;2022-11-25T17:18:18;12.53;73.21
66670;DHT22;53568;52.164;4.472;2022-11-25T17:20:45;12.55;73.34
66670;DHT22;53568;52.164;4.472;2022-11-25T17:23:15;12.55;73.27
66670;DHT22;53568;52.164;4.472;2022-11-25T17:25:45;12.55;73.08
66670;DHT22;53568;52.164;4.472;2022-11-25T17:28:16;12.59;72.88
66670;DHT22;53568;52.164;4.472;2022-11-25T17:30:44;12.59;72.90
66670;DHT22;53568;52.164;4.472;2022-11-25T17:33:15;12.60;72.86
66670;DHT22;53568;52.164;4.472;2022-11-25T17:35:42;12.59;72.92
66670;DHT22;53568;52.164;4.472;2022-11-25T17:38:19;12.60;72.81
66670;DHT22;53568;52.164;4.472;2022-11-25T17:40:45;12.62;72.86
66670;DHT22;53568;52.164;4.472;2022-11-25T17:43:16;12.59;72.93
66670;DHT22;53568;52.164;4.472;2022-11-25T17:45:42;12.62;72.64
66670;DHT22;53568;52.164;4.472;2022-11-25T17:48:10;12.57;72.64
66670;DHT22;53568;52.164;4.472;2022-11-25T17:50:36;12.50;72.88
66670;DHT22;53568;52.164;4.472;2022-11-25T17:53:02;12.50;72.96
66670;DHT22;53568;52.164;4.472;2022-11-25T17:55:29;12.55;72.73
66670;DHT22;53568;52.164;4.472;2022-11-25T17:57:55;12.50;72.72
66670;DHT22;53568;52.164;4.472;2022-11-25T18:00:21;12.42;73.01
66670;DHT22;53568;52.164;4.472;2022-11-25T18:02:46;12.45;72.95